Flight Track Log - Related Links

Times and Time Zones

All times are in EDT time to prevent confusion due to time zone crossing. See the WJA129 flight status page for this flight to view local times or setup timezone preferences in your user account.

Time Position Orientation Groundspeed Altitude Reporting Facility
EDT Latitude Longitude Course Direction KTS MPH feet Rate Location/Type
Mon 10:31:32 PM 50.4990 -104.8410 284° West 244 281 7,400  Level FlightAware ADS-B
Mon 10:32:02 PM 50.5070 -104.8880 285° West 254 292 8,800 2,400 Climbing FlightAware ADS-B
Mon 10:32:47 PM 50.5210 -104.9740 284° West 297 342 10,400 1,800 Climbing FlightAware ADS-B
Mon 10:33:32 PM 50.5410 -105.0880 285° West 359 413 11,500 1,875 Climbing FlightAware ADS-B
Mon 10:34:07 PM 50.5550 -105.1700 285° West 374 430 12,900 2,960 Climbing FlightAware ADS-B
Mon 10:34:47 PM 50.5720 -105.2750 284° West 381 438 15,200 3,247 Climbing FlightAware ADS-B
Mon 10:35:32 PM 50.5930 -105.3970 285° West 395 455 17,500 3,200 Climbing FlightAware ADS-B
Mon 10:36:17 PM 50.6170 -105.5430 285° West 407 468 20,000 2,933 Climbing FlightAware ADS-B
Mon 10:37:02 PM 50.6370 -105.6620 285° West 412 474 21,900 2,240 Climbing FlightAware ADS-B
Mon 10:37:32 PM 50.6480 -105.7310 284° West 420 483 22,800 2,160 Climbing FlightAware ADS-B
Mon 10:38:17 PM 50.6720 -105.8790 284° West 429 494 24,600 2,147 Climbing FlightAware ADS-B
Mon 10:39:07 PM 50.6980 -106.0370 285° West 437 503 26,200 2,067 Climbing FlightAware ADS-B
Mon 10:39:47 PM 50.7180 -106.1610 284° West 437 503 27,700 2,175 Climbing FlightAware ADS-B
Mon 10:40:27 PM 50.7370 -106.2860 284° West 435 501 29,100 2,100 Climbing FlightAware ADS-B
Mon 10:41:07 PM 50.7570 -106.4090 284° West 433 498 30,500 1,980 Climbing FlightAware ADS-B
Mon 10:42:07 PM 50.7850 -106.5930 284° West 428 493 32,400 1,740 Climbing FlightAware ADS-B
Mon 10:42:47 PM 50.8030 -106.7090 284° West 432 497 33,400 1,440 Climbing FlightAware ADS-B
Mon 10:43:22 PM 50.8190 -106.8090 284° West 434 499 34,200 600 Climbing FlightAware ADS-B
Mon 10:44:07 PM 50.8370 -106.9380 283° West 434 499 34,200  Level FlightAware ADS-B
Mon 10:44:57 PM 50.8570 -107.0690 284° West 434 499 34,200  Level FlightAware ADS-B
Mon 10:45:37 PM 50.8720 -107.1750 283° West 434 499 34,200  Level FlightAware ADS-B
Mon 10:46:17 PM 50.8870 -107.2800 283° West 434 499 34,200  Level FlightAware ADS-B
Mon 10:46:57 PM 50.9030 -107.3860 283° West 434 499 34,200  Level FlightAware ADS-B
Mon 10:47:37 PM 50.9180 -107.4910 283° West 434 499 34,200  Level FlightAware ADS-B
Mon 10:48:27 PM 50.9370 -107.6230 283° West 434 499 34,200  Level FlightAware ADS-B
Mon 10:49:07 PM 50.9530 -107.7290 284° West 434 499 34,200  Level FlightAware ADS-B
Mon 10:49:47 PM 50.9680 -107.8340 283° West 434 499 34,200  Level FlightAware ADS-B
Mon 10:50:27 PM 50.9830 -107.9400 283° West 434 499 34,200  Level FlightAware ADS-B
Mon 10:51:07 PM 50.9990 -108.0460 284° West 434 499 34,200  Level FlightAware ADS-B
Mon 10:51:57 PM 51.0180 -108.1780 283° West 434 499 34,200  Level FlightAware ADS-B
Mon 10:52:27 PM 51.0290 -108.2570 283° West 434 499 34,200  Level FlightAware ADS-B
Mon 10:53:07 PM 51.0450 -108.3630 284° West 434 499 34,200 6,214 Level FlightAware ADS-B
Mon 10:53:23 PM 51.0667 -108.6833 284° West 430 495 40,000 10,875 Climbing Winnipeg Center
Mon 10:53:39 PM 51.0667 -108.7167 270° West 420 483 40,000  Level Edmonton Center
Mon 10:54:23 PM 51.0833 -108.8833 279° West 410 472 40,000  Level Winnipeg Center
Mon 10:55:23 PM 51.1167 -109.0500 288° West 400 460 40,000  Level Winnipeg Center
Mon 10:56:23 PM 51.1333 -109.2167 279° West 400 460 40,000  Level Winnipeg Center
Mon 10:57:23 PM 51.1500 -109.3833 279° West 390 449 40,000  Level Winnipeg Center
Mon 10:57:39 PM 51.1500 -109.4000 270° West 390 449 40,000  Level Edmonton Center
Mon 10:58:39 PM 51.1667 -109.6000 278° West 380 437 40,000  Level Edmonton Center
Mon 10:59:39 PM 51.2000 -109.7667 288° West 390 449 40,000  Level Edmonton Center
Mon 11:00:23 PM 51.2167 -109.9000 281° West 390 449 40,000  Level Winnipeg Center
Mon 11:01:23 PM 51.2500 -110.0833 286° West 390 449 40,000  Level Winnipeg Center
Mon 11:02:23 PM 51.2500 -110.2500 270° West 390 449 40,000  Level Winnipeg Center
Mon 11:02:39 PM 51.2500 -110.2833 270° West 390 449 40,000  Level Edmonton Center
Mon 11:03:39 PM 51.2333 -110.4333 260° West 390 449 40,000  Level Edmonton Center
Mon 11:04:39 PM 51.2500 -110.6000 279° West 390 449 40,000  Level Edmonton Center
Mon 11:05:39 PM 51.2500 -110.8000 270° West 390 449 40,000  Level Edmonton Center
Mon 11:06:23 PM 51.2667 -110.9333 281° West 400 460 40,000  Level Winnipeg Center
Mon 11:07:23 PM 51.2667 -111.1167 270° West 400 460 40,000  Level Winnipeg Center
Mon 11:07:39 PM 51.2667 -111.1500 270° West 390 449 40,000  Level Edmonton Center
Mon 11:08:39 PM 51.2667 -111.3000 270° West 390 449 40,000 -650 Level Edmonton Center
Mon 11:09:39 PM 51.2667 -111.5000 270° West 390 449 38,700 -1,700 Descending Edmonton Center
Mon 11:10:39 PM 51.2667 -111.6667 270° West 400 460 36,600 -2,200 Descending Edmonton Center
Mon 11:11:39 PM 51.2833 -111.8500 278° West 390 449 34,300 -2,300 Descending Edmonton Center
Mon 11:12:39 PM 51.2833 -112.0167 270° West 380 437 32,000 -2,200 Descending Edmonton Center
Mon 11:13:39 PM 51.2667 -112.2000 262° West 370 426 29,900 -2,150 Descending Edmonton Center
Mon 11:14:39 PM 51.2833 -112.3333 281° West 360 414 27,700 -2,250 Descending Edmonton Center
Mon 11:15:39 PM 51.2833 -112.5000 270° West 360 414 25,400 -2,200 Descending Edmonton Center
Mon 11:16:39 PM 51.2667 -112.6667 261° West 350 403 23,300 -2,150 Descending Edmonton Center
Mon 11:17:39 PM 51.2833 -112.8000 281° West 340 391 21,100 -2,100 Descending Edmonton Center
Mon 11:18:39 PM 51.2500 -112.9500 251° West 340 391 19,100 -1,900 Descending Edmonton Center
Mon 11:19:39 PM 51.2333 -113.1167 261° West 330 380 17,300 -1,650 Descending Edmonton Center
Mon 11:20:39 PM 51.2000 -113.2500 248° West 330 380 15,800 -1,000 Descending Edmonton Center
Mon 11:21:39 PM 51.1833 -113.3833 259° West 280 322 15,300 -700 Descending Edmonton Center
Mon 11:22:39 PM 51.1667 -113.4833 255° West 260 299 14,400 -1,050 Descending Edmonton Center
Mon 11:23:39 PM 51.1333 -113.5833 242° Southwest 260 299 13,200 -1,250 Descending Edmonton Center
Mon 11:24:39 PM 51.1333 -113.6833 270° West 250 288 11,900 -1,200 Descending Edmonton Center
Mon 11:25:39 PM 51.1167 -113.8000 257° West 230 265 10,800 -1,100 Descending Edmonton Center
Mon 11:26:39 PM 51.1667 -113.8833 314° West 240 276 9,700 -950 Descending Edmonton Center
Mon 11:27:39 PM 51.2167 -113.9000 348° North 240 276 8,900 -900 Descending Edmonton Center
Mon 11:28:39 PM 51.2833 -113.9167 351° North 220 253 7,900 -900 Descending Edmonton Center
Mon 11:29:39 PM 51.3333 -113.9500 337° Northwest 230 265 7,100 -700 Descending Edmonton Center
Mon 11:30:39 PM 51.2833 -114.0167 220° Southwest 180 207 6,500 -400 Descending Edmonton Center
Mon 11:31:39 PM 51.2333 -114.0333 192° South 160 184 6,300 -500 Descending Edmonton Center
Mon 11:32:39 PM 51.2000 -114.0333 180° South 160 184 5,500 -850 Descending Edmonton Center
Mon 11:33:39 PM 51.1500 -114.0500 192° South 150 173 4,600 -800 Descending Edmonton Center
Mon 11:34:39 PM 51.1167 -114.0333 163° South 130 150 3,900 -700 Descending Edmonton Center

Login

Don't have an account? Register now (free) for customized features, flight alerts, and more!